sensor_id;sensor_type;location;lat;lon;timestamp;P1;durP1;ratioP1;P2;durP2;ratioP2
76210;SDS011;65003;49.518;11.280;2023-05-15T00:02:07;5.57;;;5.00;;
76210;SDS011;65003;49.518;11.280;2023-05-15T00:04:33;5.50;;;4.90;;
76210;SDS011;65003;49.518;11.280;2023-05-15T00:07:00;5.07;;;4.60;;
76210;SDS011;65003;49.518;11.280;2023-05-15T00:09:26;5.33;;;4.83;;
76210;SDS011;65003;49.518;11.280;2023-05-15T00:11:53;4.97;;;4.57;;
76210;SDS011;65003;49.518;11.280;2023-05-15T00:14:19;5.53;;;4.97;;
76210;SDS011;65003;49.518;11.280;2023-05-15T00:16:46;6.27;;;4.67;;
76210;SDS011;65003;49.518;11.280;2023-05-15T00:19:13;5.93;;;5.33;;
76210;SDS011;65003;49.518;11.280;2023-05-15T00:21:39;5.53;;;4.73;;
76210;SDS011;65003;49.518;11.280;2023-05-15T00:24:06;5.33;;;4.83;;
76210;SDS011;65003;49.518;11.280;2023-05-15T00:26:32;5.53;;;5.03;;
76210;SDS011;65003;49.518;11.280;2023-05-15T00:28:59;5.33;;;4.83;;
76210;SDS011;65003;49.518;11.280;2023-05-15T00:31:26;9.10;;;5.00;;
76210;SDS011;65003;49.518;11.280;2023-05-15T00:33:52;5.10;;;4.60;;
76210;SDS011;65003;49.518;11.280;2023-05-15T00:36:19;5.33;;;4.67;;
76210;SDS011;65003;49.518;11.280;2023-05-15T00:38:46;5.30;;;4.57;;
76210;SDS011;65003;49.518;11.280;2023-05-15T00:41:13;5.03;;;4.35;;
76210;SDS011;65003;49.518;11.280;2023-05-15T00:43:39;4.47;;;4.00;;
76210;SDS011;65003;49.518;11.280;2023-05-15T00:46:06;4.00;;;3.70;;
76210;SDS011;65003;49.518;11.280;2023-05-15T00:48:33;5.63;;;4.97;;
76210;SDS011;65003;49.518;11.280;2023-05-15T00:50:59;6.40;;;4.90;;
76210;SDS011;65003;49.518;11.280;2023-05-15T00:53:26;5.67;;;5.10;;
76210;SDS011;65003;49.518;11.280;2023-05-15T00:55:53;5.57;;;4.47;;
76210;SDS011;65003;49.518;11.280;2023-05-15T00:58:20;5.50;;;4.87;;
76210;SDS011;65003;49.518;11.280;2023-05-15T01:00:46;5.40;;;4.90;;
76210;SDS011;65003;49.518;11.280;2023-05-15T01:03:13;6.50;;;5.60;;
76210;SDS011;65003;49.518;11.280;2023-05-15T01:05:39;5.30;;;4.80;;
76210;SDS011;65003;49.518;11.280;2023-05-15T01:08:11;6.57;;;5.50;;
76210;SDS011;65003;49.518;11.280;2023-05-15T01:10:52;6.40;;;4.60;;
76210;SDS011;65003;49.518;11.280;2023-05-15T01:13:19;6.10;;;4.97;;
76210;SDS011;65003;49.518;11.280;2023-05-15T01:15:45;5.07;;;4.47;;
76210;SDS011;65003;49.518;11.280;2023-05-15T01:18:12;5.43;;;4.77;;
76210;SDS011;65003;49.518;11.280;2023-05-15T01:21:00;5.67;;;4.90;;
76210;SDS011;65003;49.518;11.280;2023-05-15T01:23:09;6.67;;;5.10;;
76210;SDS011;65003;49.518;11.280;2023-05-15T01:28:09;5.80;;;5.23;;
76210;SDS011;65003;49.518;11.280;2023-05-15T01:30:36;6.60;;;5.80;;
76210;SDS011;65003;49.518;11.280;2023-05-15T01:33:04;5.47;;;4.90;;
76210;SDS011;65003;49.518;11.280;2023-05-15T01:35:33;7.13;;;4.70;;
76210;SDS011;65003;49.518;11.280;2023-05-15T01:38:15;5.17;;;4.67;;
76210;SDS011;65003;49.518;11.280;2023-05-15T01:40:55;5.87;;;4.33;;
76210;SDS011;65003;49.518;11.280;2023-05-15T01:43:21;5.07;;;4.53;;
76210;SDS011;65003;49.518;11.280;2023-05-15T01:45:45;5.60;;;5.00;;
76210;SDS011;65003;49.518;11.280;2023-05-15T01:48:12;5.70;;;5.10;;
76210;SDS011;65003;49.518;11.280;2023-05-15T01:50:39;7.70;;;4.57;;
76210;SDS011;65003;49.518;11.280;2023-05-15T01:53:06;5.53;;;5.03;;
76210;SDS011;65003;49.518;11.280;2023-05-15T01:55:32;5.80;;;5.13;;
76210;SDS011;65003;49.518;11.280;2023-05-15T01:57:59;5.73;;;5.13;;
76210;SDS011;65003;49.518;11.280;2023-05-15T02:00:25;5.13;;;4.63;;
76210;SDS011;65003;49.518;11.280;2023-05-15T02:02:52;6.43;;;4.93;;
76210;SDS011;65003;49.518;11.280;2023-05-15T02:05:18;5.73;;;5.13;;
76210;SDS011;65003;49.518;11.280;2023-05-15T02:07:45;5.93;;;5.20;;
76210;SDS011;65003;49.518;11.280;2023-05-15T02:10:11;6.83;;;5.10;;
76210;SDS011;65003;49.518;11.280;2023-05-15T02:12:39;5.20;;;4.70;;
76210;SDS011;65003;49.518;11.280;2023-05-15T02:15:06;6.20;;;4.93;;
76210;SDS011;65003;49.518;11.280;2023-05-15T02:17:34;5.30;;;4.67;;
76210;SDS011;65003;49.518;11.280;2023-05-15T02:20:01;6.57;;;5.13;;
76210;SDS011;65003;49.518;11.280;2023-05-15T02:22:27;5.30;;;4.80;;
76210;SDS011;65003;49.518;11.280;2023-05-15T02:24:54;8.00;;;5.27;;
76210;SDS011;65003;49.518;11.280;2023-05-15T02:27:23;5.73;;;4.60;;
76210;SDS011;65003;49.518;11.280;2023-05-15T02:29:56;6.03;;;5.43;;
76210;SDS011;65003;49.518;11.280;2023-05-15T02:32:23;6.07;;;5.47;;
76210;SDS011;65003;49.518;11.280;2023-05-15T02:35:08;5.70;;;5.20;;
76210;SDS011;65003;49.518;11.280;2023-05-15T02:37:37;5.60;;;4.57;;
76210;SDS011;65003;49.518;11.280;2023-05-15T02:40:02;7.00;;;4.80;;
76210;SDS011;65003;49.518;11.280;2023-05-15T02:42:28;5.93;;;5.10;;
76210;SDS011;65003;49.518;11.280;2023-05-15T02:44:56;7.27;;;4.53;;
76210;SDS011;65003;49.518;11.280;2023-05-15T02:47:22;6.37;;;4.93;;
76210;SDS011;65003;49.518;11.280;2023-05-15T02:49:48;5.90;;;5.10;;
76210;SDS011;65003;49.518;11.280;2023-05-15T02:52:15;8.80;;;5.33;;
76210;SDS011;65003;49.518;11.280;2023-05-15T02:54:42;6.23;;;5.63;;
76210;SDS011;65003;49.518;11.280;2023-05-15T02:57:08;5.87;;;5.37;;
76210;SDS011;65003;49.518;11.280;2023-05-15T02:59:35;6.00;;;5.40;;
76210;SDS011;65003;49.518;11.280;2023-05-15T03:02:01;5.17;;;4.67;;
76210;SDS011;65003;49.518;11.280;2023-05-15T03:04:28;6.73;;;4.80;;
76210;SDS011;65003;49.518;11.280;2023-05-15T03:06:55;5.93;;;5.17;;
76210;SDS011;65003;49.518;11.280;2023-05-15T03:09:21;6.37;;;5.00;;
76210;SDS011;65003;49.518;11.280;2023-05-15T03:11:48;6.57;;;5.23;;
76210;SDS011;65003;49.518;11.280;2023-05-15T03:14:14;4.93;;;4.43;;
76210;SDS011;65003;49.518;11.280;2023-05-15T03:16:41;6.60;;;5.17;;
76210;SDS011;65003;49.518;11.280;2023-05-15T03:19:08;6.03;;;4.67;;
76210;SDS011;65003;49.518;11.280;2023-05-15T03:21:34;4.70;;;4.13;;
76210;SDS011;65003;49.518;11.280;2023-05-15T03:24:01;5.47;;;4.97;;
76210;SDS011;65003;49.518;11.280;2023-05-15T03:26:27;6.20;;;4.87;;
76210;SDS011;65003;49.518;11.280;2023-05-15T03:28:54;5.27;;;4.77;;
76210;SDS011;65003;49.518;11.280;2023-05-15T03:31:20;5.63;;;5.13;;
76210;SDS011;65003;49.518;11.280;2023-05-15T03:33:47;6.13;;;5.37;;
76210;SDS011;65003;49.518;11.280;2023-05-15T03:36:14;6.10;;;5.50;;
76210;SDS011;65003;49.518;11.280;2023-05-15T03:38:40;6.53;;;5.37;;
76210;SDS011;65003;49.518;11.280;2023-05-15T03:41:07;7.13;;;5.53;;
76210;SDS011;65003;49.518;11.280;2023-05-15T03:43:34;6.90;;;5.37;;
76210;SDS011;65003;49.518;11.280;2023-05-15T03:46:00;5.97;;;5.30;;
76210;SDS011;65003;49.518;11.280;2023-05-15T03:48:27;7.03;;;5.60;;
76210;SDS011;65003;49.518;11.280;2023-05-15T03:50:53;6.17;;;5.27;;
76210;SDS011;65003;49.518;11.280;2023-05-15T03:53:20;6.50;;;5.20;;
76210;SDS011;65003;49.518;11.280;2023-05-15T03:55:47;7.67;;;6.10;;
76210;SDS011;65003;49.518;11.280;2023-05-15T03:58:13;5.77;;;5.17;;
76210;SDS011;65003;49.518;11.280;2023-05-15T04:00:40;5.90;;;5.20;;
76210;SDS011;65003;49.518;11.280;2023-05-15T04:03:07;7.83;;;5.60;;
76210;SDS011;65003;49.518;11.280;2023-05-15T04:05:33;6.93;;;6.20;;
76210;SDS011;65003;49.518;11.280;2023-05-15T04:08:00;6.20;;;5.50;;
76210;SDS011;65003;49.518;11.280;2023-05-15T04:10:26;6.03;;;5.33;;
76210;SDS011;65003;49.518;11.280;2023-05-15T04:12:53;6.20;;;5.60;;
76210;SDS011;65003;49.518;11.280;2023-05-15T04:15:20;6.63;;;5.63;;
76210;SDS011;65003;49.518;11.280;2023-05-15T04:17:47;7.43;;;6.40;;
76210;SDS011;65003;49.518;11.280;2023-05-15T04:20:14;9.40;;;6.33;;
76210;SDS011;65003;49.518;11.280;2023-05-15T04:22:40;7.57;;;6.60;;
76210;SDS011;65003;49.518;11.280;2023-05-15T04:25:06;8.10;;;6.57;;
76210;SDS011;65003;49.518;11.280;2023-05-15T04:27:34;9.03;;;6.27;;
76210;SDS011;65003;49.518;11.280;2023-05-15T04:30:00;9.87;;;6.27;;
76210;SDS011;65003;49.518;11.280;2023-05-15T04:32:27;8.00;;;6.00;;
76210;SDS011;65003;49.518;11.280;2023-05-15T04:34:53;7.50;;;6.23;;
76210;SDS011;65003;49.518;11.280;2023-05-15T04:37:20;7.05;;;6.35;;
76210;SDS011;65003;49.518;11.280;2023-05-15T04:39:46;6.73;;;5.80;;
76210;SDS011;65003;49.518;11.280;2023-05-15T04:42:13;7.20;;;5.87;;
76210;SDS011;65003;49.518;11.280;2023-05-15T04:44:40;8.83;;;6.10;;
76210;SDS011;65003;49.518;11.280;2023-05-15T04:47:06;10.13;;;5.73;;
76210;SDS011;65003;49.518;11.280;2023-05-15T04:49:33;8.87;;;5.63;;
76210;SDS011;65003;49.518;11.280;2023-05-15T04:51:59;10.50;;;6.13;;
76210;SDS011;65003;49.518;11.280;2023-05-15T04:54:26;5.60;;;5.10;;
76210;SDS011;65003;49.518;11.280;2023-05-15T04:56:52;9.00;;;5.10;;
76210;SDS011;65003;49.518;11.280;2023-05-15T04:59:19;7.53;;;4.97;;
76210;SDS011;65003;49.518;11.280;2023-05-15T05:01:46;5.30;;;4.80;;
76210;SDS011;65003;49.518;11.280;2023-05-15T05:04:12;8.10;;;6.47;;
76210;SDS011;65003;49.518;11.280;2023-05-15T05:06:39;6.40;;;5.77;;
76210;SDS011;65003;49.518;11.280;2023-05-15T05:09:05;7.80;;;5.77;;
76210;SDS011;65003;49.518;11.280;2023-05-15T05:11:32;5.70;;;5.20;;
76210;SDS011;65003;49.518;11.280;2023-05-15T05:13:59;6.43;;;5.83;;
76210;SDS011;65003;49.518;11.280;2023-05-15T05:16:25;5.60;;;5.10;;
76210;SDS011;65003;49.518;11.280;2023-05-15T05:18:52;7.03;;;5.80;;
76210;SDS011;65003;49.518;11.280;2023-05-15T05:21:18;8.07;;;5.57;;
76210;SDS011;65003;49.518;11.280;2023-05-15T05:23:45;5.40;;;4.90;;
76210;SDS011;65003;49.518;11.280;2023-05-15T05:26:12;7.13;;;6.27;;
76210;SDS011;65003;49.518;11.280;2023-05-15T05:28:38;6.93;;;5.77;;
76210;SDS011;65003;49.518;11.280;2023-05-15T05:31:05;6.67;;;5.90;;
76210;SDS011;65003;49.518;11.280;2023-05-15T05:33:31;6.20;;;5.60;;
76210;SDS011;65003;49.518;11.280;2023-05-15T05:35:58;5.37;;;4.87;;
76210;SDS011;65003;49.518;11.280;2023-05-15T05:38:25;5.70;;;5.20;;
76210;SDS011;65003;49.518;11.280;2023-05-15T05:40:51;7.53;;;4.97;;
76210;SDS011;65003;49.518;11.280;2023-05-15T05:43:18;7.23;;;5.23;;
76210;SDS011;65003;49.518;11.280;2023-05-15T05:45:45;7.73;;;5.63;;
76210;SDS011;65003;49.518;11.280;2023-05-15T05:48:11;7.90;;;5.57;;
76210;SDS011;65003;49.518;11.280;2023-05-15T05:50:38;5.20;;;4.60;;
76210;SDS011;65003;49.518;11.280;2023-05-15T05:53:04;7.57;;;4.73;;
76210;SDS011;65003;49.518;11.280;2023-05-15T05:55:31;5.53;;;4.97;;
76210;SDS011;65003;49.518;11.280;2023-05-15T05:57:57;7.10;;;5.00;;
76210;SDS011;65003;49.518;11.280;2023-05-15T06:00:24;6.20;;;5.23;;
76210;SDS011;65003;49.518;11.280;2023-05-15T06:02:52;6.17;;;5.47;;
76210;SDS011;65003;49.518;11.280;2023-05-15T06:05:17;6.87;;;5.70;;
76210;SDS011;65003;49.518;11.280;2023-05-15T06:07:44;6.53;;;5.43;;
76210;SDS011;65003;49.518;11.280;2023-05-15T06:10:10;5.60;;;5.10;;
76210;SDS011;65003;49.518;11.280;2023-05-15T06:12:37;5.50;;;4.80;;
76210;SDS011;65003;49.518;11.280;2023-05-15T06:15:04;5.53;;;4.93;;
76210;SDS011;65003;49.518;11.280;2023-05-15T06:17:31;6.03;;;5.37;;
76210;SDS011;65003;49.518;11.280;2023-05-15T06:19:57;6.70;;;5.63;;
76210;SDS011;65003;49.518;11.280;2023-05-15T06:22:24;8.27;;;5.23;;
76210;SDS011;65003;49.518;11.280;2023-05-15T06:24:51;6.03;;;5.40;;
76210;SDS011;65003;49.518;11.280;2023-05-15T06:27:17;6.07;;;5.57;;
76210;SDS011;65003;49.518;11.280;2023-05-15T06:29:44;5.93;;;5.17;;
76210;SDS011;65003;49.518;11.280;2023-05-15T06:32:10;7.23;;;5.03;;
76210;SDS011;65003;49.518;11.280;2023-05-15T06:34:37;5.93;;;5.00;;
76210;SDS011;65003;49.518;11.280;2023-05-15T06:37:04;6.30;;;4.50;;
76210;SDS011;65003;49.518;11.280;2023-05-15T06:39:30;6.43;;;5.13;;
76210;SDS011;65003;49.518;11.280;2023-05-15T06:41:57;5.30;;;4.80;;
76210;SDS011;65003;49.518;11.280;2023-05-15T06:44:24;6.07;;;4.63;;
76210;SDS011;65003;49.518;11.280;2023-05-15T06:46:50;5.33;;;4.50;;
76210;SDS011;65003;49.518;11.280;2023-05-15T06:49:17;4.67;;;4.27;;
76210;SDS011;65003;49.518;11.280;2023-05-15T06:51:44;5.43;;;4.67;;
76210;SDS011;65003;49.518;11.280;2023-05-15T06:54:11;5.03;;;4.53;;
76210;SDS011;65003;49.518;11.280;2023-05-15T06:56:38;4.60;;;4.20;;
76210;SDS011;65003;49.518;11.280;2023-05-15T06:59:04;5.13;;;4.63;;
76210;SDS011;65003;49.518;11.280;2023-05-15T07:01:31;4.60;;;4.20;;
76210;SDS011;65003;49.518;11.280;2023-05-15T07:03:57;4.80;;;4.40;;
76210;SDS011;65003;49.518;11.280;2023-05-15T07:06:24;5.13;;;4.63;;
76210;SDS011;65003;49.518;11.280;2023-05-15T07:08:51;4.80;;;4.40;;
76210;SDS011;65003;49.518;11.280;2023-05-15T07:11:17;5.93;;;5.43;;
76210;SDS011;65003;49.518;11.280;2023-05-15T07:13:44;4.77;;;4.47;;
76210;SDS011;65003;49.518;11.280;2023-05-15T07:16:10;5.47;;;5.07;;
76210;SDS011;65003;49.518;11.280;2023-05-15T07:18:37;4.80;;;4.40;;
76210;SDS011;65003;49.518;11.280;2023-05-15T07:21:03;4.80;;;4.50;;
76210;SDS011;65003;49.518;11.280;2023-05-15T07:23:30;4.00;;;3.70;;
76210;SDS011;65003;49.518;11.280;2023-05-15T07:25:57;4.47;;;3.53;;
76210;SDS011;65003;49.518;11.280;2023-05-15T07:28:23;3.60;;;3.30;;
76210;SDS011;65003;49.518;11.280;2023-05-15T07:30:50;3.98;;;3.50;;
76210;SDS011;65003;49.518;11.280;2023-05-15T07:33:17;6.60;;;6.10;;
76210;SDS011;65003;49.518;11.280;2023-05-15T07:35:43;8.50;;;7.92;;
76210;SDS011;65003;49.518;11.280;2023-05-15T07:38:10;4.33;;;3.87;;
76210;SDS011;65003;49.518;11.280;2023-05-15T07:40:37;3.70;;;3.40;;
76210;SDS011;65003;49.518;11.280;2023-05-15T07:43:03;3.67;;;3.37;;
76210;SDS011;65003;49.518;11.280;2023-05-15T07:45:30;3.40;;;3.10;;
76210;SDS011;65003;49.518;11.280;2023-05-15T07:47:56;4.50;;;3.50;;
76210;SDS011;65003;49.518;11.280;2023-05-15T07:50:23;3.50;;;3.20;;
76210;SDS011;65003;49.518;11.280;2023-05-15T07:52:50;3.07;;;2.87;;
76210;SDS011;65003;49.518;11.280;2023-05-15T07:55:17;3.70;;;3.40;;
76210;SDS011;65003;49.518;11.280;2023-05-15T07:57:43;3.40;;;3.20;;
76210;SDS011;65003;49.518;11.280;2023-05-15T08:00:10;4.03;;;3.60;;
76210;SDS011;65003;49.518;11.280;2023-05-15T08:02:37;3.60;;;3.30;;
76210;SDS011;65003;49.518;11.280;2023-05-15T08:05:04;3.42;;;3.12;;
76210;SDS011;65003;49.518;11.280;2023-05-15T08:07:30;3.57;;;3.37;;
76210;SDS011;65003;49.518;11.280;2023-05-15T08:09:57;3.70;;;3.40;;
76210;SDS011;65003;49.518;11.280;2023-05-15T08:12:24;3.03;;;2.73;;
76210;SDS011;65003;49.518;11.280;2023-05-15T08:14:51;3.40;;;3.10;;
76210;SDS011;65003;49.518;11.280;2023-05-15T08:17:17;4.50;;;3.97;;
76210;SDS011;65003;49.518;11.280;2023-05-15T08:19:43;3.90;;;3.40;;
76210;SDS011;65003;49.518;11.280;2023-05-15T08:22:10;3.87;;;3.57;;
76210;SDS011;65003;49.518;11.280;2023-05-15T08:24:37;3.23;;;3.03;;
76210;SDS011;65003;49.518;11.280;2023-05-15T08:27:04;3.90;;;3.40;;
76210;SDS011;65003;49.518;11.280;2023-05-15T08:29:30;4.33;;;3.83;;
76210;SDS011;65003;49.518;11.280;2023-05-15T08:31:56;6.35;;;3.90;;
76210;SDS011;65003;49.518;11.280;2023-05-15T08:34:23;4.00;;;3.70;;
76210;SDS011;65003;49.518;11.280;2023-05-15T08:36:50;4.00;;;3.70;;
76210;SDS011;65003;49.518;11.280;2023-05-15T08:39:16;3.93;;;3.53;;
76210;SDS011;65003;49.518;11.280;2023-05-15T08:41:50;4.40;;;4.00;;
76210;SDS011;65003;49.518;11.280;2023-05-15T08:44:13;3.23;;;3.03;;
76210;SDS011;65003;49.518;11.280;2023-05-15T08:46:40;3.87;;;3.50;;
76210;SDS011;65003;49.518;11.280;2023-05-15T08:49:13;4.47;;;3.50;;
76210;SDS011;65003;49.518;11.280;2023-05-15T08:51:38;3.67;;;3.37;;
76210;SDS011;65003;49.518;11.280;2023-05-15T08:54:04;4.53;;;3.75;;
76210;SDS011;65003;49.518;11.280;2023-05-15T08:56:31;4.80;;;4.20;;
76210;SDS011;65003;49.518;11.280;2023-05-15T08:58:57;4.17;;;3.87;;
76210;SDS011;65003;49.518;11.280;2023-05-15T09:01:24;4.40;;;4.00;;
76210;SDS011;65003;49.518;11.280;2023-05-15T09:03:51;4.62;;;3.77;;
76210;SDS011;65003;49.518;11.280;2023-05-15T09:06:17;3.55;;;3.35;;
76210;SDS011;65003;49.518;11.280;2023-05-15T09:08:44;3.95;;;3.60;;
76210;SDS011;65003;49.518;11.280;2023-05-15T09:11:11;4.05;;;2.90;;
76210;SDS011;65003;49.518;11.280;2023-05-15T09:13:37;2.80;;;2.60;;
76210;SDS011;65003;49.518;11.280;2023-05-15T09:16:04;5.17;;;3.70;;
76210;SDS011;65003;49.518;11.280;2023-05-15T09:18:31;4.28;;;2.87;;
76210;SDS011;65003;49.518;11.280;2023-05-15T09:21:20;3.08;;;2.87;;
76210;SDS011;65003;49.518;11.280;2023-05-15T09:23:30;3.12;;;2.72;;
76210;SDS011;65003;49.518;11.280;2023-05-15T09:25:57;3.10;;;2.90;;
76210;SDS011;65003;49.518;11.280;2023-05-15T09:28:25;3.70;;;3.45;;
76210;SDS011;65003;49.518;11.280;2023-05-15T09:30:55;4.25;;;3.95;;
76210;SDS011;65003;49.518;11.280;2023-05-15T09:33:17;3.10;;;2.90;;
76210;SDS011;65003;49.518;11.280;2023-05-15T09:35:44;3.83;;;3.37;;
76210;SDS011;65003;49.518;11.280;2023-05-15T09:38:11;3.47;;;3.27;;
76210;SDS011;65003;49.518;11.280;2023-05-15T09:40:37;3.55;;;3.12;;
76210;SDS011;65003;49.518;11.280;2023-05-15T09:43:04;3.60;;;3.30;;
76210;SDS011;65003;49.518;11.280;2023-05-15T09:45:30;3.47;;;3.20;;
76210;SDS011;65003;49.518;11.280;2023-05-15T09:47:58;3.30;;;2.90;;
76210;SDS011;65003;49.518;11.280;2023-05-15T09:50:30;3.00;;;2.80;;
76210;SDS011;65003;49.518;11.280;2023-05-15T09:52:51;2.90;;;2.70;;
76210;SDS011;65003;49.518;11.280;2023-05-15T09:55:18;3.27;;;2.83;;
76210;SDS011;65003;49.518;11.280;2023-05-15T09:58:02;2.60;;;2.40;;
76210;SDS011;65003;49.518;11.280;2023-05-15T10:00:27;2.57;;;2.33;;
76210;SDS011;65003;49.518;11.280;2023-05-15T10:02:56;2.40;;;2.20;;
76210;SDS011;65003;49.518;11.280;2023-05-15T10:05:20;2.67;;;2.47;;
76210;SDS011;65003;49.518;11.280;2023-05-15T10:07:47;3.37;;;2.70;;
76210;SDS011;65003;49.518;11.280;2023-05-15T10:10:13;4.23;;;2.80;;
76210;SDS011;65003;49.518;11.280;2023-05-15T10:12:40;2.53;;;2.33;;
76210;SDS011;65003;49.518;11.280;2023-05-15T10:15:06;3.63;;;2.10;;
76210;SDS011;65003;49.518;11.280;2023-05-15T10:17:33;3.10;;;2.70;;
76210;SDS011;65003;49.518;11.280;2023-05-15T10:20:00;2.90;;;2.50;;
76210;SDS011;65003;49.518;11.280;2023-05-15T10:22:28;3.10;;;2.70;;
76210;SDS011;65003;49.518;11.280;2023-05-15T10:25:05;3.67;;;2.50;;
76210;SDS011;65003;49.518;11.280;2023-05-15T10:27:34;3.43;;;3.13;;
76210;SDS011;65003;49.518;11.280;2023-05-15T10:30:01;4.23;;;3.00;;
76210;SDS011;65003;49.518;11.280;2023-05-15T10:32:27;4.87;;;3.40;;
76210;SDS011;65003;49.518;11.280;2023-05-15T10:34:53;3.23;;;3.03;;
76210;SDS011;65003;49.518;11.280;2023-05-15T10:37:20;2.97;;;2.67;;
76210;SDS011;65003;49.518;11.280;2023-05-15T10:39:47;3.20;;;2.37;;
76210;SDS011;65003;49.518;11.280;2023-05-15T10:42:13;1.70;;;1.60;;
76210;SDS011;65003;49.518;11.280;2023-05-15T10:44:40;2.20;;;1.37;;
76210;SDS011;65003;49.518;11.280;2023-05-15T10:47:06;1.87;;;1.60;;
76210;SDS011;65003;49.518;11.280;2023-05-15T10:49:33;2.10;;;1.80;;
76210;SDS011;65003;49.518;11.280;2023-05-15T10:52:00;1.90;;;1.80;;
76210;SDS011;65003;49.518;11.280;2023-05-15T10:54:27;1.40;;;1.30;;
76210;SDS011;65003;49.518;11.280;2023-05-15T10:56:54;1.60;;;1.50;;
76210;SDS011;65003;49.518;11.280;2023-05-15T10:59:21;2.30;;;2.10;;
76210;SDS011;65003;49.518;11.280;2023-05-15T11:01:47;2.23;;;2.03;;
76210;SDS011;65003;49.518;11.280;2023-05-15T11:04:15;2.97;;;1.97;;
76210;SDS011;65003;49.518;11.280;2023-05-15T11:06:41;4.03;;;2.23;;
76210;SDS011;65003;49.518;11.280;2023-05-15T11:12:01;2.53;;;2.33;;
76210;SDS011;65003;49.518;11.280;2023-05-15T11:14:27;3.10;;;2.80;;
76210;SDS011;65003;49.518;11.280;2023-05-15T11:16:56;4.93;;;2.77;;
76210;SDS011;65003;49.518;11.280;2023-05-15T11:19:23;4.07;;;2.63;;
76210;SDS011;65003;49.518;11.280;2023-05-15T11:21:56;2.30;;;2.10;;
76210;SDS011;65003;49.518;11.280;2023-05-15T11:24:27;2.77;;;2.57;;
76210;SDS011;65003;49.518;11.280;2023-05-15T11:26:58;2.77;;;2.50;;
76210;SDS011;65003;49.518;11.280;2023-05-15T11:29:24;5.23;;;2.97;;
76210;SDS011;65003;49.518;11.280;2023-05-15T11:31:50;3.50;;;2.50;;
76210;SDS011;65003;49.518;11.280;2023-05-15T11:36:54;2.93;;;2.50;;
76210;SDS011;65003;49.518;11.280;2023-05-15T11:39:22;2.90;;;2.60;;
76210;SDS011;65003;49.518;11.280;2023-05-15T11:41:49;3.23;;;2.90;;
76210;SDS011;65003;49.518;11.280;2023-05-15T11:44:19;2.35;;;2.15;;
76210;SDS011;65003;49.518;11.280;2023-05-15T11:46:45;2.70;;;2.50;;
76210;SDS011;65003;49.518;11.280;2023-05-15T11:49:12;2.80;;;2.60;;
76210;SDS011;65003;49.518;11.280;2023-05-15T11:51:39;3.00;;;2.70;;
76210;SDS011;65003;49.518;11.280;2023-05-15T11:54:05;2.30;;;2.20;;
76210;SDS011;65003;49.518;11.280;2023-05-15T11:56:32;2.60;;;2.40;;
76210;SDS011;65003;49.518;11.280;2023-05-15T11:58:59;2.93;;;2.63;;
76210;SDS011;65003;49.518;11.280;2023-05-15T12:01:25;3.57;;;2.73;;
76210;SDS011;65003;49.518;11.280;2023-05-15T12:03:52;2.83;;;2.40;;
76210;SDS011;65003;49.518;11.280;2023-05-15T12:06:18;3.63;;;2.53;;
76210;SDS011;65003;49.518;11.280;2023-05-15T12:08:52;2.53;;;2.33;;
76210;SDS011;65003;49.518;11.280;2023-05-15T12:11:22;3.43;;;2.67;;
76210;SDS011;65003;49.518;11.280;2023-05-15T12:13:51;3.03;;;2.60;;
76210;SDS011;65003;49.518;11.280;2023-05-15T12:16:21;2.97;;;2.60;;
76210;SDS011;65003;49.518;11.280;2023-05-15T12:18:45;3.17;;;2.87;;
76210;SDS011;65003;49.518;11.280;2023-05-15T12:21:11;3.77;;;2.57;;
76210;SDS011;65003;49.518;11.280;2023-05-15T12:23:38;3.87;;;2.90;;
76210;SDS011;65003;49.518;11.280;2023-05-15T12:26:05;2.90;;;2.50;;
76210;SDS011;65003;49.518;11.280;2023-05-15T12:28:33;3.13;;;2.83;;
76210;SDS011;65003;49.518;11.280;2023-05-15T12:30:58;6.87;;;3.30;;
76210;SDS011;65003;49.518;11.280;2023-05-15T12:33:26;3.27;;;2.80;;
76210;SDS011;65003;49.518;11.280;2023-05-15T12:35:53;3.23;;;2.77;;
76210;SDS011;65003;49.518;11.280;2023-05-15T12:38:19;3.37;;;3.07;;
76210;SDS011;65003;49.518;11.280;2023-05-15T12:40:45;3.73;;;2.93;;
76210;SDS011;65003;49.518;11.280;2023-05-15T12:43:12;3.40;;;3.10;;
76210;SDS011;65003;49.518;11.280;2023-05-15T12:45:39;4.10;;;3.03;;
76210;SDS011;65003;49.518;11.280;2023-05-15T12:48:05;3.63;;;2.70;;
76210;SDS011;65003;49.518;11.280;2023-05-15T12:50:33;4.60;;;3.50;;
76210;SDS011;65003;49.518;11.280;2023-05-15T12:53:00;4.00;;;3.07;;
76210;SDS011;65003;49.518;11.280;2023-05-15T12:55:27;3.00;;;2.80;;
76210;SDS011;65003;49.518;11.280;2023-05-15T12:57:55;3.63;;;3.03;;
76210;SDS011;65003;49.518;11.280;2023-05-15T13:00:21;3.90;;;3.47;;
76210;SDS011;65003;49.518;11.280;2023-05-15T13:02:52;4.80;;;3.67;;
76210;SDS011;65003;49.518;11.280;2023-05-15T13:05:18;4.73;;;3.57;;
76210;SDS011;65003;49.518;11.280;2023-05-15T13:07:45;4.70;;;3.60;;
76210;SDS011;65003;49.518;11.280;2023-05-15T13:10:11;4.27;;;3.40;;
76210;SDS011;65003;49.518;11.280;2023-05-15T13:12:39;4.70;;;3.27;;
76210;SDS011;65003;49.518;11.280;2023-05-15T13:15:19;3.83;;;3.43;;
76210;SDS011;65003;49.518;11.280;2023-05-15T13:17:34;4.63;;;4.10;;
76210;SDS011;65003;49.518;11.280;2023-05-15T13:20:01;3.63;;;3.33;;
76210;SDS011;65003;49.518;11.280;2023-05-15T13:22:28;3.70;;;3.40;;
76210;SDS011;65003;49.518;11.280;2023-05-15T13:24:55;3.50;;;3.20;;
76210;SDS011;65003;49.518;11.280;2023-05-15T13:27:21;3.30;;;3.00;;
76210;SDS011;65003;49.518;11.280;2023-05-15T13:29:47;6.73;;;3.20;;
76210;SDS011;65003;49.518;11.280;2023-05-15T13:32:14;3.60;;;3.07;;
76210;SDS011;65003;49.518;11.280;2023-05-15T13:34:40;3.23;;;2.80;;
76210;SDS011;65003;49.518;11.280;2023-05-15T13:37:07;2.97;;;2.70;;
76210;SDS011;65003;49.518;11.280;2023-05-15T13:39:34;2.80;;;2.53;;
76210;SDS011;65003;49.518;11.280;2023-05-15T13:42:00;5.33;;;2.60;;
76210;SDS011;65003;49.518;11.280;2023-05-15T13:44:27;3.50;;;2.43;;
76210;SDS011;65003;49.518;11.280;2023-05-15T13:46:54;3.20;;;2.30;;
76210;SDS011;65003;49.518;11.280;2023-05-15T13:49:20;2.73;;;2.50;;
76210;SDS011;65003;49.518;11.280;2023-05-15T13:51:47;3.03;;;2.70;;
76210;SDS011;65003;49.518;11.280;2023-05-15T13:54:13;4.47;;;3.00;;
76210;SDS011;65003;49.518;11.280;2023-05-15T13:56:40;3.00;;;2.80;;
76210;SDS011;65003;49.518;11.280;2023-05-15T13:59:07;2.77;;;2.57;;
76210;SDS011;65003;49.518;11.280;2023-05-15T14:01:33;4.13;;;2.80;;
76210;SDS011;65003;49.518;11.280;2023-05-15T14:04:00;4.47;;;3.07;;
76210;SDS011;65003;49.518;11.280;2023-05-15T14:06:26;3.30;;;3.00;;
76210;SDS011;65003;49.518;11.280;2023-05-15T14:08:53;3.43;;;3.10;;
76210;SDS011;65003;49.518;11.280;2023-05-15T14:11:20;4.00;;;3.53;;
76210;SDS011;65003;49.518;11.280;2023-05-15T14:13:46;5.10;;;3.77;;
76210;SDS011;65003;49.518;11.280;2023-05-15T14:16:13;5.50;;;3.13;;
76210;SDS011;65003;49.518;11.280;2023-05-15T14:18:40;3.53;;;3.23;;
76210;SDS011;65003;49.518;11.280;2023-05-15T14:21:06;4.50;;;3.50;;
76210;SDS011;65003;49.518;11.280;2023-05-15T14:23:33;4.17;;;3.67;;
76210;SDS011;65003;49.518;11.280;2023-05-15T14:26:00;6.60;;;3.30;;
76210;SDS011;65003;49.518;11.280;2023-05-15T14:28:26;4.10;;;3.37;;
76210;SDS011;65003;49.518;11.280;2023-05-15T14:30:53;3.17;;;2.93;;
76210;SDS011;65003;49.518;11.280;2023-05-15T14:33:19;4.70;;;3.20;;
76210;SDS011;65003;49.518;11.280;2023-05-15T14:35:46;4.03;;;3.10;;
76210;SDS011;65003;49.518;11.280;2023-05-15T14:38:13;4.35;;;3.47;;
76210;SDS011;65003;49.518;11.280;2023-05-15T14:40:40;4.43;;;3.60;;